Time;durP1;ratioP1;P1;durP2;ratioP2;P2;SDS_P1;SDS_P2;PMS_P1;PMS_P2;Temp;Humidity;BMP_temperature;BMP_pressure;BME280_temperature;BME280_humidity;BME280_pressure;Samples;Min_cycle;Max_cycle;Signal;HPM_P1;HPM_P2
2022/12/08 00:01:08;;;;;;;4.38;1.63;;;22.20;47.50;;;;;;5053127;28;20227;-51
2022/12/08 00:03:39;;;;;;;2.42;1.48;;;22.20;47.50;;;;;;5052799;28;20230;-47
2022/12/08 00:09:25;;;;;;;2.50;1.10;;;22.30;47.70;;;;;;5014337;28;20207;-50
2022/12/08 00:12:00;;;;;;;2.63;1.35;;;22.40;47.60;;;;;;5036755;28;20704;-50
2022/12/08 00:14:32;;;;;;;3.85;1.38;;;22.40;47.60;;;;;;5032303;28;20215;-52
2022/12/08 00:17:04;;;;;;;3.25;1.30;;;22.50;47.60;;;;;;5033256;28;20215;-48
2022/12/08 00:19:35;;;;;;;2.83;1.50;;;22.50;47.60;;;;;;5035957;28;20192;-48
2022/12/08 00:22:07;;;;;;;3.58;1.23;;;22.60;47.70;;;;;;5053006;28;20675;-47
2022/12/08 00:24:40;;;;;;;3.05;1.20;;;22.60;47.80;;;;;;5052727;28;20202;-48
2022/12/08 00:27:13;;;;;;;4.85;1.45;;;22.60;47.70;;;;;;5052826;28;20272;-47
2022/12/08 00:29:46;;;;;;;3.92;1.35;;;22.70;47.70;;;;;;5052565;28;20196;-52
2022/12/08 00:32:17;;;;;;;2.75;1.40;;;22.70;47.80;;;;;;5052501;28;20227;-53
2022/12/08 00:34:47;;;;;;;4.50;1.67;;;22.80;47.90;;;;;;5049153;28;20219;-53
2022/12/08 00:37:18;;;;;;;4.45;1.52;;;22.80;47.90;;;;;;5052731;28;20198;-50
2022/12/08 00:39:49;;;;;;;6.97;1.60;;;22.90;47.90;;;;;;5052513;28;20212;-51
2022/12/08 00:42:21;;;;;;;5.22;1.48;;;22.90;47.90;;;;;;5052748;28;20223;-51
2022/12/08 00:44:53;;;;;;;6.05;1.85;;;22.90;47.90;;;;;;5052055;28;20215;-53
2022/12/08 00:47:24;;;;;;;4.70;1.83;;;23.00;47.90;;;;;;5051883;28;20541;-53
2022/12/08 00:49:54;;;;;;;4.13;1.38;;;23.00;47.80;;;;;;5051830;28;20564;-53
2022/12/08 00:52:25;;;;;;;6.03;2.22;;;23.10;47.70;;;;;;5051991;28;20231;-56
2022/12/08 00:54:56;;;;;;;4.70;1.75;;;23.10;47.70;;;;;;5054808;28;20210;-55
2022/12/08 00:57:28;;;;;;;6.28;2.00;;;23.10;47.60;;;;;;5052282;28;20210;-56
2022/12/08 00:59:59;;;;;;;4.45;1.70;;;23.20;47.60;;;;;;5052149;28;20202;-53
2022/12/08 01:02:32;;;;;;;5.00;2.00;;;23.20;47.50;;;;;;5051870;28;20223;-57
2022/12/08 01:05:02;;;;;;;5.28;1.98;;;23.20;47.50;;;;;;5052176;28;20203;-51
2022/12/08 01:07:33;;;;;;;5.97;2.35;;;23.30;47.60;;;;;;5052257;28;20200;-49
2022/12/08 01:10:04;;;;;;;4.85;1.83;;;23.30;47.60;;;;;;5051590;28;20463;-57
2022/12/08 01:12:36;;;;;;;7.97;2.20;;;23.30;47.50;;;;;;5031973;28;20224;-56
2022/12/08 01:15:08;;;;;;;8.02;2.60;;;23.40;47.50;;;;;;5032318;28;20199;-50
2022/12/08 01:17:39;;;;;;;6.32;1.92;;;23.40;47.40;;;;;;5031956;28;20211;-53
2022/12/08 01:20:11;;;;;;;6.75;2.25;;;23.40;47.40;;;;;;5031649;28;20196;-57
2022/12/08 01:22:41;;;;;;;4.65;1.65;;;23.40;47.40;;;;;;5031797;28;20216;-57
2022/12/08 01:25:13;;;;;;;4.82;1.83;;;23.40;47.30;;;;;;5031819;28;20196;-50
2022/12/08 01:27:45;;;;;;;6.28;2.00;;;23.50;47.40;;;;;;5031403;28;20200;-51
2022/12/08 01:30:17;;;;;;;5.32;1.95;;;23.50;47.30;;;;;;5031622;28;20207;-54
2022/12/08 01:32:47;;;;;;;6.07;1.75;;;23.50;47.20;;;;;;5031454;28;20212;-50
2022/12/08 01:35:19;;;;;;;7.63;2.30;;;23.50;47.20;;;;;;5030809;28;20192;-56
2022/12/08 01:37:51;;;;;;;6.68;2.22;;;23.60;47.20;;;;;;5030937;28;20207;-56
2022/12/08 01:40:21;;;;;;;6.30;2.08;;;23.60;47.20;;;;;;5031153;28;20200;-48
2022/12/08 01:42:54;;;;;;;5.90;2.22;;;23.60;47.20;;;;;;5030755;28;20220;-57
2022/12/08 01:45:28;;;;;;;7.57;2.35;;;23.70;47.20;;;;;;5030937;28;20200;-54
2022/12/08 01:48:01;;;;;;;6.30;2.33;;;23.70;47.20;;;;;;5030942;28;20200;-47
2022/12/08 01:50:33;;;;;;;5.55;2.10;;;23.70;47.20;;;;;;5030649;28;20208;-51
2022/12/08 01:53:09;;;;;;;7.00;2.13;;;23.70;47.10;;;;;;5052679;28;20219;-56
2022/12/08 01:55:43;;;;;;;4.40;2.00;;;23.70;47.10;;;;;;5051189;28;20199;-54
2022/12/08 01:58:21;;;;;;;5.03;2.05;;;23.80;47.10;;;;;;5051046;28;20195;-53
2022/12/08 02:00:52;;;;;;;5.55;1.73;;;23.80;47.10;;;;;;5050980;28;20710;-52
2022/12/08 02:03:27;;;;;;;3.97;1.85;;;23.80;47.00;;;;;;5050778;28;20219;-52
2022/12/08 02:05:58;;;;;;;9.00;2.55;;;23.80;46.90;;;;;;5050593;28;20564;-51
2022/12/08 02:08:30;;;;;;;5.72;1.98;;;23.80;46.90;;;;;;5050550;28;20217;-56
2022/12/08 02:11:01;;;;;;;6.65;2.30;;;23.90;46.90;;;;;;5042067;28;20660;-51
2022/12/08 02:13:34;;;;;;;6.68;2.50;;;23.90;46.90;;;;;;5031019;28;20228;-52
2022/12/08 02:16:11;;;;;;;5.25;2.15;;;23.90;46.90;;;;;;5040593;28;20195;-55
2022/12/08 02:18:59;;;;;;;6.10;2.03;;;23.90;46.80;;;;;;5050878;28;20201;-54
2022/12/08 02:21:36;;;;;;;8.10;2.40;;;24.00;46.90;;;;;;5050223;28;20686;-55
2022/12/08 02:24:19;;;;;;;7.53;2.42;;;24.00;46.90;;;;;;5050006;28;20219;-53
2022/12/08 02:27:35;;;;;;;7.47;2.45;;;24.00;46.80;;;;;;5049964;28;20200;-52
2022/12/08 02:30:15;;;;;;;6.15;2.20;;;24.00;46.80;;;;;;5049512;28;20195;-53
2022/12/08 02:33:17;;;;;;;5.40;2.00;;;24.00;46.80;;;;;;5049458;28;20223;-53
2022/12/08 02:36:00;;;;;;;6.80;2.15;;;24.10;46.80;;;;;;5046215;28;20196;-53
2022/12/08 02:38:41;;;;;;;6.03;2.40;;;24.10;46.80;;;;;;5051652;28;20199;-53
2022/12/08 02:41:25;;;;;;;5.30;1.75;;;24.10;46.80;;;;;;5054039;28;20229;-54
2022/12/08 02:44:02;;;;;;;6.95;2.28;;;24.20;46.80;;;;;;5054140;28;20219;-54
2022/12/08 02:46:37;;;;;;;7.68;2.42;;;24.20;46.80;;;;;;5054709;28;20214;-53
2022/12/08 02:49:08;;;;;;;8.50;2.65;;;24.20;46.70;;;;;;5056409;28;20823;-51
2022/12/08 02:51:41;;;;;;;6.68;2.38;;;24.20;46.60;;;;;;5034513;28;20680;-50
2022/12/08 02:54:12;;;;;;;6.95;2.05;;;24.30;46.60;;;;;;5033876;28;20595;-52
2022/12/08 02:57:00;;;;;;;8.27;2.40;;;24.30;46.60;;;;;;5034554;28;20735;-54
2022/12/08 02:59:54;;;;;;;5.20;2.05;;;24.30;47.10;;;;;;5034442;28;20202;-53
2022/12/08 03:02:43;;;;;;;5.90;2.47;;;24.30;46.50;;;;;;5034137;28;20853;-53
2022/12/08 03:05:25;;;;;;;5.13;1.88;;;24.40;46.40;;;;;;5034522;28;20200;-54
2022/12/08 03:08:04;;;;;;;6.40;1.95;;;24.40;46.40;;;;;;5034466;28;20196;-53
2022/12/08 03:10:42;;;;;;;6.05;2.40;;;24.40;46.40;;;;;;5039114;28;20709;-52
2022/12/08 03:13:15;;;;;;;5.35;2.05;;;24.50;46.40;;;;;;5053742;28;20215;-54
2022/12/08 03:15:49;;;;;;;4.45;2.00;;;24.50;46.40;;;;;;5053588;28;20199;-53
2022/12/08 03:18:22;;;;;;;7.95;2.30;;;24.50;46.40;;;;;;5053452;28;20207;-53
2022/12/08 03:20:53;;;;;;;4.15;1.65;;;24.50;46.30;;;;;;5053737;28;20562;-52
2022/12/08 03:23:27;;;;;;;10.85;2.38;;;24.60;46.20;;;;;;5053794;28;20226;-51
2022/12/08 03:26:05;;;;;;;5.43;1.83;;;24.60;46.30;;;;;;5053813;28;20199;-52
2022/12/08 03:28:36;;;;;;;4.38;1.90;;;24.60;46.40;;;;;;5053889;28;20203;-53
2022/12/08 03:31:14;;;;;;;5.65;2.08;;;24.60;46.40;;;;;;5053236;28;20207;-52
2022/12/08 03:33:48;;;;;;;6.70;2.03;;;24.60;46.40;;;;;;5053313;28;20222;-52
2022/12/08 03:36:20;;;;;;;8.13;2.10;;;24.70;46.40;;;;;;5053444;28;20203;-53
2022/12/08 03:38:54;;;;;;;4.30;2.05;;;24.70;46.30;;;;;;5053435;28;20199;-53
2022/12/08 03:41:25;;;;;;;7.13;2.33;;;24.70;46.30;;;;;;5053033;28;20254;-52
2022/12/08 03:43:57;;;;;;;8.60;2.35;;;24.70;46.30;;;;;;5053207;28;20690;-53
2022/12/08 03:46:29;;;;;;;6.32;2.20;;;24.70;46.30;;;;;;5053804;28;20206;-53
2022/12/08 03:49:00;;;;;;;5.50;2.05;;;24.80;46.20;;;;;;5053282;28;20195;-54
2022/12/08 03:51:30;;;;;;;4.80;1.95;;;24.80;46.10;;;;;;5053540;28;20660;-52
2022/12/08 03:54:03;;;;;;;6.18;2.20;;;24.80;46.10;;;;;;5055548;28;20223;-51
2022/12/08 04:56:14;;;;;;;6.28;2.30;;;25.10;45.60;;;;;;5769347;23;20593;-52
2022/12/08 04:58:45;;;;;;;7.38;2.00;;;25.10;45.50;;;;;;5011857;28;20204;-52
2022/12/08 05:01:16;;;;;;;6.68;2.35;;;25.20;45.60;;;;;;5011401;28;20201;-53
2022/12/08 05:03:47;;;;;;;5.93;2.05;;;25.20;46.20;;;;;;5012028;28;20221;-53
2022/12/08 05:06:18;;;;;;;7.03;2.42;;;25.20;45.60;;;;;;5012022;28;20556;-51
2022/12/08 05:08:48;;;;;;;5.13;2.17;;;25.20;45.60;;;;;;5012208;28;20208;-53
2022/12/08 05:11:21;;;;;;;5.00;1.70;;;25.20;45.60;;;;;;5012527;28;20285;-52
2022/12/08 05:13:52;;;;;;;6.22;2.28;;;25.20;45.60;;;;;;5012135;28;20224;-54
2022/12/08 05:16:22;;;;;;;6.88;1.80;;;25.30;45.60;;;;;;5011932;28;20205;-53
2022/12/08 05:18:53;;;;;;;5.97;2.08;;;25.30;45.50;;;;;;5011673;28;20779;-52
2022/12/08 05:21:24;;;;;;;6.38;2.45;;;25.30;45.40;;;;;;5011253;28;20205;-52
2022/12/08 05:23:54;;;;;;;4.53;2.00;;;25.30;45.40;;;;;;5011544;28;20588;-52
2022/12/08 05:26:27;;;;;;;5.93;2.17;;;25.30;45.30;;;;;;5011793;28;20193;-56
2022/12/08 05:28:58;;;;;;;5.93;2.10;;;25.30;45.30;;;;;;5011460;28;20204;-53
2022/12/08 05:31:28;;;;;;;5.47;2.30;;;25.30;45.30;;;;;;5011623;28;20660;-53
2022/12/08 05:33:59;;;;;;;3.95;1.77;;;25.30;45.30;;;;;;5011641;28;20588;-53
2022/12/08 05:36:30;;;;;;;6.00;1.90;;;25.30;45.30;;;;;;5011657;28;20216;-53
2022/12/08 05:39:01;;;;;;;5.22;2.42;;;25.30;45.20;;;;;;5011394;28;20544;-52
2022/12/08 05:41:33;;;;;;;7.25;2.05;;;25.40;45.40;;;;;;5011323;28;20225;-53
2022/12/08 05:44:04;;;;;;;4.13;1.90;;;25.40;45.40;;;;;;5011486;28;20217;-51
2022/12/08 05:46:35;;;;;;;6.38;2.42;;;25.50;45.40;;;;;;5011711;28;20565;-55
2022/12/08 05:49:06;;;;;;;5.13;1.83;;;25.40;45.30;;;;;;5011406;28;20208;-51
2022/12/08 05:51:37;;;;;;;5.97;1.83;;;25.40;45.20;;;;;;5011369;28;20227;-51
2022/12/08 05:54:08;;;;;;;4.32;1.90;;;25.50;45.20;;;;;;5010938;28;20573;-50
2022/12/08 05:56:40;;;;;;;4.82;1.90;;;25.50;45.20;;;;;;5011385;28;20665;-50
2022/12/08 05:59:11;;;;;;;4.35;1.67;;;25.50;45.20;;;;;;5011159;28;20205;-50
2022/12/08 06:01:42;;;;;;;4.47;1.83;;;25.50;45.10;;;;;;5011594;28;20225;-53
2022/12/08 06:04:13;;;;;;;7.10;2.22;;;25.50;45.20;;;;;;5011444;28;20217;-55
2022/12/08 06:06:44;;;;;;;5.80;2.05;;;25.50;45.20;;;;;;5011481;28;20212;-55
2022/12/08 06:09:15;;;;;;;4.97;1.92;;;25.50;45.20;;;;;;5011258;28;20258;-50
2022/12/08 06:11:47;;;;;;;4.95;1.83;;;25.50;45.30;;;;;;5010711;28;20204;-51
2022/12/08 06:14:18;;;;;;;5.40;1.95;;;25.50;45.30;;;;;;5010212;28;20197;-55
2022/12/08 06:16:49;;;;;;;4.40;1.88;;;25.50;45.20;;;;;;5011100;28;20208;-52
2022/12/08 06:19:19;;;;;;;5.18;1.90;;;25.60;45.30;;;;;;5011230;28;20652;-51
2022/12/08 06:21:50;;;;;;;4.78;2.08;;;25.60;45.30;;;;;;5010859;28;20247;-51
2022/12/08 06:24:21;;;;;;;5.70;2.08;;;25.60;45.80;;;;;;5011141;28;20216;-54
2022/12/08 06:26:53;;;;;;;3.65;1.70;;;25.60;45.20;;;;;;5010909;28;20200;-53
2022/12/08 06:29:24;;;;;;;5.35;1.90;;;25.60;45.10;;;;;;4991914;28;20285;-51
2022/12/08 06:31:55;;;;;;;4.97;1.92;;;25.60;45.00;;;;;;4991404;28;20229;-54
2022/12/08 06:34:26;;;;;;;4.55;1.73;;;25.60;45.00;;;;;;4990996;28;20194;-52
2022/12/08 06:36:56;;;;;;;5.50;2.03;;;25.70;45.10;;;;;;4990768;28;20212;-50
2022/12/08 06:39:27;;;;;;;6.70;2.30;;;25.70;45.10;;;;;;4999811;28;20189;-54
2022/12/08 06:44:47;;;;;;;4.60;1.90;;;25.70;45.10;;;;;;5011025;28;20215;-50
2022/12/08 06:47:18;;;;;;;5.80;2.20;;;25.70;45.10;;;;;;5010401;28;20208;-51
2022/12/08 06:49:49;;;;;;;5.53;2.20;;;25.70;45.10;;;;;;5010365;28;20207;-52
2022/12/08 06:52:20;;;;;;;6.47;2.30;;;25.70;45.10;;;;;;5010608;28;20228;-51
2022/12/08 06:54:51;;;;;;;5.15;1.98;;;25.70;45.10;;;;;;5010586;28;20197;-52
2022/12/08 06:57:25;;;;;;;7.05;2.20;;;25.70;45.10;;;;;;5011317;28;20212;-51
2022/12/08 06:59:56;;;;;;;5.15;1.80;;;25.70;45.00;;;;;;5010414;28;20565;-51
2022/12/08 07:02:27;;;;;;;5.82;1.73;;;25.70;45.10;;;;;;5009958;28;20240;-53
2022/12/08 07:04:58;;;;;;;5.30;1.77;;;25.70;45.10;;;;;;5010556;28;20200;-51
2022/12/08 07:07:29;;;;;;;4.07;1.70;;;25.70;45.00;;;;;;5010886;28;20215;-54
2022/12/08 07:09:59;;;;;;;4.05;1.70;;;25.70;45.00;;;;;;5010557;28;20204;-50
2022/12/08 07:12:32;;;;;;;4.78;2.10;;;25.70;45.00;;;;;;4991118;28;20225;-54
2022/12/08 07:15:03;;;;;;;3.83;1.80;;;25.70;45.00;;;;;;4990853;28;20206;-52
2022/12/08 07:17:33;;;;;;;3.10;1.67;;;25.70;45.00;;;;;;4990717;28;20200;-53
2022/12/08 07:20:04;;;;;;;3.90;1.70;;;25.70;45.00;;;;;;4994581;28;20204;-50
2022/12/08 07:22:35;;;;;;;6.00;2.00;;;25.70;45.00;;;;;;5010547;28;20701;-54
2022/12/08 07:25:06;;;;;;;4.32;2.08;;;25.70;45.00;;;;;;5012926;28;20539;-53
2022/12/08 07:27:39;;;;;;;4.28;2.05;;;25.70;45.10;;;;;;5014247;28;20734;-51
2022/12/08 07:30:11;;;;;;;4.70;1.90;;;25.60;45.00;;;;;;5014294;28;20199;-53
2022/12/08 07:32:42;;;;;;;4.50;2.00;;;25.60;45.00;;;;;;5014347;28;20216;-50
2022/12/08 07:35:13;;;;;;;5.10;2.20;;;25.60;45.00;;;;;;5013804;28;20208;-54
2022/12/08 07:37:47;;;;;;;5.93;2.00;;;25.60;45.00;;;;;;5013562;28;20205;-51
2022/12/08 07:40:18;;;;;;;4.63;1.92;;;25.60;45.10;;;;;;5013667;28;20254;-50
2022/12/08 07:42:51;;;;;;;3.10;1.52;;;25.60;45.10;;;;;;5013446;28;20229;-50
2022/12/08 07:45:22;;;;;;;4.68;1.88;;;25.60;45.10;;;;;;5013814;28;20201;-50
2022/12/08 07:47:52;;;;;;;3.83;2.00;;;25.60;45.10;;;;;;5013749;28;20212;-51
2022/12/08 07:50:23;;;;;;;4.88;1.95;;;25.60;45.10;;;;;;5013083;28;20201;-49
2022/12/08 07:52:54;;;;;;;3.45;1.58;;;25.60;45.10;;;;;;5013184;28;20225;-51
2022/12/08 07:55:24;;;;;;;5.30;1.77;;;25.50;45.10;;;;;;5013788;28;20193;-51
2022/12/08 07:57:57;;;;;;;4.80;2.08;;;25.50;45.20;;;;;;5013651;28;20197;-52
2022/12/08 08:00:28;;;;;;;3.28;1.73;;;25.50;45.20;;;;;;5013592;28;20664;-50
2022/12/08 08:02:58;;;;;;;4.32;1.60;;;25.40;45.10;;;;;;5013231;28;20229;-51
2022/12/08 08:05:29;;;;;;;4.25;1.67;;;25.40;45.20;;;;;;5013186;28;20679;-50
2022/12/08 08:08:00;;;;;;;4.07;1.70;;;25.40;45.20;;;;;;5013608;28;20235;-53
2022/12/08 08:10:31;;;;;;;2.50;1.42;;;25.40;45.30;;;;;;5013602;28;20201;-51
2022/12/08 08:13:04;;;;;;;3.58;1.80;;;25.30;45.20;;;;;;5012789;28;20221;-53
2022/12/08 08:15:35;;;;;;;3.38;1.70;;;25.30;45.30;;;;;;5013041;28;20215;-51
2022/12/08 08:18:06;;;;;;;4.30;1.90;;;25.30;45.30;;;;;;5013228;28;20207;-54
2022/12/08 08:20:36;;;;;;;7.82;2.15;;;25.30;45.30;;;;;;5013070;28;20197;-52
2022/12/08 08:23:07;;;;;;;6.45;2.25;;;25.30;45.40;;;;;;5007322;28;20228;-52
2022/12/08 08:25:38;;;;;;;8.25;1.95;;;25.30;45.30;;;;;;5011774;28;20192;-51
2022/12/08 08:28:10;;;;;;;6.45;2.17;;;25.20;45.30;;;;;;5012642;28;20193;-52
2022/12/08 08:30:41;;;;;;;5.28;2.00;;;25.20;45.30;;;;;;5011951;28;20203;-54
2022/12/08 08:33:12;;;;;;;4.93;1.73;;;25.20;45.50;;;;;;5011569;28;20217;-51
2022/12/08 08:35:43;;;;;;;4.35;2.05;;;25.20;45.50;;;;;;5011483;28;20197;-55
2022/12/08 08:38:13;;;;;;;5.20;2.10;;;25.10;45.50;;;;;;5011864;28;20678;-53
2022/12/08 08:40:45;;;;;;;5.97;2.33;;;25.10;45.60;;;;;;5012766;28;20204;-51
2022/12/08 08:43:29;;;;;;;4.78;2.20;;;25.10;45.60;;;;;;5011108;28;20688;-52
2022/12/08 08:46:01;;;;;;;5.50;2.15;;;25.10;45.60;;;;;;5012407;28;20197;-53
2022/12/08 08:48:33;;;;;;;4.32;1.85;;;25.00;45.50;;;;;;5011202;28;20189;-53
2022/12/08 08:51:10;;;;;;;5.95;2.47;;;25.00;45.60;;;;;;5011491;28;20197;-51
2022/12/08 08:53:41;;;;;;;4.97;1.90;;;25.00;45.60;;;;;;5011251;28;20255;-54
2022/12/08 08:56:12;;;;;;;3.92;1.83;;;25.00;45.60;;;;;;5012056;28;20208;-54
2022/12/08 08:58:45;;;;;;;6.15;2.20;;;25.00;45.60;;;;;;5011211;28;20565;-53
2022/12/08 09:01:19;;;;;;;5.95;2.22;;;25.00;45.60;;;;;;5011995;28;20283;-54
2022/12/08 09:03:50;;;;;;;5.53;1.75;;;24.90;45.60;;;;;;5012054;28;20243;-53
2022/12/08 09:06:22;;;;;;;4.05;1.75;;;24.90;45.70;;;;;;5011494;28;20196;-51
2022/12/08 09:08:53;;;;;;;3.72;2.10;;;24.90;45.70;;;;;;5011898;28;20193;-53
2022/12/08 09:11:24;;;;;;;4.57;2.30;;;24.80;45.70;;;;;;5011195;28;20216;-53
2022/12/08 09:13:57;;;;;;;5.30;2.22;;;24.80;45.70;;;;;;5011792;28;20213;-51
2022/12/08 09:16:28;;;;;;;4.07;2.13;;;24.80;45.70;;;;;;5011559;28;20697;-51
2022/12/08 09:18:59;;;;;;;5.07;1.95;;;24.80;45.70;;;;;;5011334;28;20665;-51
2022/12/08 09:21:30;;;;;;;5.53;1.70;;;24.70;45.70;;;;;;5011287;28;20212;-54
2022/12/08 09:24:02;;;;;;;5.43;2.13;;;24.70;45.70;;;;;;5011453;28;20224;-52
2022/12/08 09:26:32;;;;;;;5.05;1.98;;;24.70;45.80;;;;;;5010105;28;20197;-52
2022/12/08 09:29:05;;;;;;;4.65;1.80;;;24.70;45.80;;;;;;5010556;28;20197;-54
2022/12/08 09:31:36;;;;;;;4.38;2.08;;;24.60;45.80;;;;;;5011357;28;20220;-54
2022/12/08 09:34:07;;;;;;;3.63;1.80;;;24.70;45.80;;;;;;5010412;28;20229;-53
2022/12/08 09:36:38;;;;;;;3.28;1.80;;;24.60;45.80;;;;;;5011054;28;20201;-55
2022/12/08 09:39:09;;;;;;;5.20;2.25;;;24.60;45.80;;;;;;5010954;28;20215;-55
2022/12/08 09:41:48;;;;;;;3.58;1.80;;;24.50;45.80;;;;;;5010886;28;20205;-53
2022/12/08 09:44:45;;;;;;;3.80;1.90;;;24.50;45.80;;;;;;5011087;28;20577;-51
2022/12/08 09:47:29;;;;;;;3.53;1.70;;;24.50;45.80;;;;;;5010474;28;20196;-51
2022/12/08 09:50:05;;;;;;;6.93;2.05;;;24.50;45.80;;;;;;5010795;28;20226;-51
2022/12/08 09:52:41;;;;;;;3.83;1.75;;;24.50;45.90;;;;;;5010333;28;20259;-53
2022/12/08 09:55:24;;;;;;;3.17;1.80;;;24.40;45.80;;;;;;5010284;28;20192;-50
2022/12/08 09:58:01;;;;;;;4.28;2.00;;;24.40;45.90;;;;;;5011076;28;20216;-53
2022/12/08 10:00:34;;;;;;;3.63;1.60;;;24.30;45.90;;;;;;5009761;28;20240;-52
2022/12/08 10:03:05;;;;;;;6.28;2.22;;;24.30;45.90;;;;;;5010320;28;20233;-51
2022/12/08 10:05:43;;;;;;;5.65;2.00;;;24.30;46.00;;;;;;5010391;28;20193;-50
2022/12/08 10:08:20;;;;;;;4.78;1.83;;;24.30;46.00;;;;;;5011207;28;20581;-51
2022/12/08 10:10:58;;;;;;;3.42;1.80;;;24.20;45.90;;;;;;5009253;28;20601;-55
2022/12/08 10:13:36;;;;;;;5.13;2.00;;;24.20;46.00;;;;;;5009310;28;20708;-53
2022/12/08 10:16:22;;;;;;;4.95;2.22;;;24.20;46.00;;;;;;5010854;28;20197;-54
2022/12/08 10:18:59;;;;;;;3.70;1.75;;;24.20;46.00;;;;;;5009908;28;20661;-52
2022/12/08 10:21:32;;;;;;;3.75;1.83;;;24.20;46.10;;;;;;5010265;28;20197;-52
2022/12/08 10:24:08;;;;;;;4.10;1.60;;;24.10;46.00;;;;;;5007194;28;20263;-51
2022/12/08 10:26:38;;;;;;;3.90;1.98;;;24.00;46.00;;;;;;5010875;28;20644;-53
2022/12/08 10:29:13;;;;;;;3.28;1.70;;;24.00;46.10;;;;;;5010503;28;20688;-52
2022/12/08 10:31:46;;;;;;;4.05;1.70;;;24.00;46.10;;;;;;5010934;28;20243;-54
2022/12/08 10:34:22;;;;;;;3.03;1.55;;;24.00;46.10;;;;;;5010553;28;20189;-53
2022/12/08 10:36:55;;;;;;;5.70;2.10;;;24.00;46.20;;;;;;5010297;28;20200;-52
2022/12/08 10:39:38;;;;;;;3.65;1.50;;;23.90;46.20;;;;;;5009789;28;20200;-54
2022/12/08 10:42:20;;;;;;;3.42;1.40;;;23.90;46.20;;;;;;5009846;28;20208;-53
2022/12/08 10:45:00;;;;;;;2.28;1.30;;;23.80;46.20;;;;;;5010385;28;20219;-54
2022/12/08 10:47:38;;;;;;;4.18;1.60;;;23.90;46.20;;;;;;5009532;28;20653;-55
2022/12/08 10:50:18;;;;;;;4.53;1.70;;;23.80;46.20;;;;;;5009005;28;20200;-55
2022/12/08 10:52:55;;;;;;;3.50;1.77;;;23.80;46.20;;;;;;5008803;28;20216;-54
2022/12/08 10:55:27;;;;;;;3.63;1.60;;;23.80;46.20;;;;;;5010676;28;20613;-52
2022/12/08 10:57:57;;;;;;;3.63;1.52;;;23.70;46.20;;;;;;5009862;28;20200;-51
2022/12/08 11:00:29;;;;;;;3.60;1.65;;;23.70;46.20;;;;;;5013675;28;20675;-52
2022/12/08 11:03:04;;;;;;;4.00;1.55;;;23.70;46.30;;;;;;5014220;28;20213;-53
2022/12/08 11:05:37;;;;;;;4.65;1.80;;;23.60;46.30;;;;;;5014142;28;20207;-52
2022/12/08 11:08:09;;;;;;;4.45;1.90;;;23.60;46.30;;;;;;5013829;28;20204;-54
2022/12/08 11:10:45;;;;;;;3.97;1.48;;;23.50;46.40;;;;;;5014066;28;20653;-52
2022/12/08 11:13:24;;;;;;;3.20;1.50;;;23.50;46.40;;;;;;5014235;28;20216;-54
2022/12/08 11:15:57;;;;;;;3.70;1.83;;;23.50;46.40;;;;;;5014133;28;20228;-53
2022/12/08 11:18:31;;;;;;;4.22;1.80;;;23.40;46.40;;;;;;5014615;28;20588;-54
2022/12/08 11:21:11;;;;;;;4.03;1.77;;;23.40;46.40;;;;;;5014287;28;20204;-51
2022/12/08 11:23:45;;;;;;;4.05;1.80;;;23.40;46.40;;;;;;5014373;28;20704;-53
2022/12/08 11:26:25;;;;;;;2.40;1.60;;;23.40;46.50;;;;;;5014463;28;20229;-51
2022/12/08 11:28:56;;;;;;;3.40;1.55;;;23.40;46.50;;;;;;5013876;28;20676;-51
2022/12/08 11:31:31;;;;;;;4.25;2.03;;;23.30;46.50;;;;;;5014172;28;20665;-50
2022/12/08 11:34:05;;;;;;;3.08;1.60;;;23.30;46.50;;;;;;5014150;28;20221;-54
2022/12/08 11:36:39;;;;;;;3.17;1.60;;;23.30;46.50;;;;;;5013603;28;20791;-52
2022/12/08 11:39:14;;;;;;;2.78;1.38;;;23.20;46.50;;;;;;5013754;28;20206;-53
2022/12/08 11:41:48;;;;;;;2.58;1.42;;;23.20;46.60;;;;;;5014071;28;20674;-53
2022/12/08 11:44:29;;;;;;;3.10;1.45;;;23.20;46.70;;;;;;5014060;28;20229;-54
2022/12/08 11:47:03;;;;;;;2.97;1.30;;;23.10;46.70;;;;;;5013809;28;20592;-52
2022/12/08 11:49:38;;;;;;;2.95;1.48;;;23.10;46.70;;;;;;5014012;28;20227;-53
2022/12/08 11:52:20;;;;;;;3.17;1.70;;;23.10;46.70;;;;;;5013496;28;20664;-52
2022/12/08 11:54:57;;;;;;;3.30;1.52;;;23.10;46.70;;;;;;5013803;28;20197;-54
2022/12/08 11:57:30;;;;;;;2.70;1.17;;;23.00;46.70;;;;;;5014163;28;20219;-53
2022/12/08 12:00:02;;;;;;;2.92;1.45;;;23.00;46.70;;;;;;5013642;28;20768;-50
2022/12/08 12:02:41;;;;;;;3.17;1.50;;;23.00;46.80;;;;;;5013078;28;20212;-53
2022/12/08 12:05:26;;;;;;;3.95;2.00;;;22.90;46.70;;;;;;5013516;28;20231;-54
2022/12/08 12:08:09;;;;;;;2.67;1.63;;;22.90;46.80;;;;;;5013756;28;20196;-55
2022/12/08 12:10:56;;;;;;;3.15;1.50;;;22.90;46.80;;;;;;5011998;28;20205;-52
2022/12/08 12:13:54;;;;;;;2.70;1.38;;;22.90;46.80;;;;;;5013236;28;20224;-52
2022/12/08 12:17:03;;;;;;;4.03;1.73;;;22.80;46.90;;;;;;5013586;28;20201;-50
2022/12/08 12:19:37;;;;;;;4.13;1.40;;;22.80;47.00;;;;;;5012040;28;20670;-50
2022/12/08 12:22:16;;;;;;;3.75;1.77;;;22.80;46.90;;;;;;5012578;28;20204;-54
2022/12/08 12:24:49;;;;;;;2.25;1.45;;;22.70;46.90;;;;;;5012735;28;20235;-52
2022/12/08 12:27:29;;;;;;;3.35;1.30;;;22.70;47.00;;;;;;5013185;28;20201;-53
2022/12/08 12:30:03;;;;;;;2.95;1.40;;;22.70;47.60;;;;;;5013588;28;20205;-52
2022/12/08 12:32:46;;;;;;;3.47;1.50;;;22.60;47.00;;;;;;5013231;28;20220;-53
2022/12/08 12:35:22;;;;;;;2.85;1.45;;;22.60;47.00;;;;;;5012653;28;20253;-54
2022/12/08 12:38:01;;;;;;;3.42;1.50;;;22.60;47.00;;;;;;5012794;28;20200;-53
2022/12/08 12:40:40;;;;;;;3.80;1.50;;;22.60;47.00;;;;;;5012924;28;20215;-54
2022/12/08 12:43:30;;;;;;;2.90;1.73;;;22.50;47.10;;;;;;5012565;28;20224;-53
2022/12/08 12:46:36;;;;;;;3.10;1.33;;;22.50;47.10;;;;;;5012226;28;20201;-55
2022/12/08 12:49:38;;;;;;;2.50;1.30;;;22.50;47.10;;;;;;5012932;28;20205;-54
2022/12/08 12:52:44;;;;;;;2.90;1.65;;;22.50;47.10;;;;;;5009320;28;20205;-52
2022/12/08 12:55:59;;;;;;;2.55;1.10;;;22.40;47.10;;;;;;5012593;28;20208;-49
2022/12/08 12:58:50;;;;;;;4.07;1.38;;;22.40;47.10;;;;;;5012695;28;20200;-55
2022/12/08 13:01:46;;;;;;;2.97;1.38;;;22.40;47.20;;;;;;5012755;28;20292;-51
2022/12/08 13:04:18;;;;;;;3.53;1.20;;;22.30;47.10;;;;;;5012226;28;20231;-50
2022/12/08 13:06:51;;;;;;;2.72;1.50;;;22.30;47.10;;;;;;5012343;28;20193;-52
2022/12/08 13:09:25;;;;;;;2.53;1.30;;;22.30;47.20;;;;;;5012717;28;20204;-50
2022/12/08 13:12:01;;;;;;;2.25;1.55;;;22.20;47.20;;;;;;5011669;28;20204;-52
2022/12/08 13:14:36;;;;;;;3.30;1.30;;;22.20;47.20;;;;;;5011782;28;20204;-51
2022/12/08 13:17:13;;;;;;;2.55;1.17;;;22.20;47.30;;;;;;5012120;28;20767;-51
2022/12/08 13:19:49;;;;;;;3.05;1.25;;;22.20;47.30;;;;;;5012002;28;20558;-50
2022/12/08 13:22:55;;;;;;;4.00;1.70;;;22.10;47.20;;;;;;5011421;28;20208;-52
2022/12/08 13:26:11;;;;;;;2.00;1.20;;;22.10;47.30;;;;;;5012069;28;20225;-51
2022/12/08 13:29:22;;;;;;;3.17;1.30;;;22.10;47.20;;;;;;4970152;28;20202;-53
2022/12/08 13:31:56;;;;;;;2.70;1.08;;;22.10;47.20;;;;;;4961276;28;20202;-53
2022/12/08 13:34:34;;;;;;;2.20;1.40;;;22.00;47.30;;;;;;5007516;28;20193;-53
2022/12/08 13:37:26;;;;;;;2.00;1.23;;;22.00;47.30;;;;;;5011815;28;20201;-50
2022/12/08 13:40:01;;;;;;;2.92;1.40;;;21.90;47.30;;;;;;5011975;28;20262;-52
2022/12/08 13:42:37;;;;;;;2.33;1.17;;;21.90;47.30;;;;;;5010842;28;20209;-49
2022/12/08 13:45:18;;;;;;;1.55;1.08;;;21.90;47.40;;;;;;4991418;28;20239;-53
2022/12/08 13:47:57;;;;;;;2.45;1.42;;;21.90;47.40;;;;;;4991646;28;20205;-52
2022/12/08 13:50:35;;;;;;;3.92;1.35;;;21.90;47.40;;;;;;4992038;28;20212;-52
2022/12/08 13:53:11;;;;;;;3.38;1.30;;;21.90;47.40;;;;;;4991665;28;20252;-49
2022/12/08 13:55:45;;;;;;;1.98;1.45;;;21.80;47.40;;;;;;4992358;28;20204;-51
2022/12/08 13:58:26;;;;;;;2.78;1.42;;;21.80;47.40;;;;;;4992012;28;20224;-51
2022/12/08 14:01:06;;;;;;;3.45;1.40;;;21.80;47.50;;;;;;4991999;28;20197;-50
2022/12/08 14:03:47;;;;;;;3.03;1.17;;;21.70;47.40;;;;;;4991960;28;20225;-50
2022/12/08 14:06:20;;;;;;;3.45;1.30;;;21.70;47.40;;;;;;4991476;28;20209;-50
2022/12/08 14:08:56;;;;;;;2.70;1.20;;;21.70;47.50;;;;;;4991738;28;20198;-52
2022/12/08 14:11:35;;;;;;;2.55;1.33;;;21.70;47.50;;;;;;5003781;28;20204;-50
2022/12/08 14:14:08;;;;;;;2.25;1.50;;;21.60;47.40;;;;;;5011515;28;20216;-49
2022/12/08 14:16:41;;;;;;;2.80;1.27;;;21.60;47.40;;;;;;5011311;28;20676;-49
2022/12/08 14:19:22;;;;;;;1.75;1.10;;;21.60;47.50;;;;;;5011177;28;20196;-51
2022/12/08 14:21:59;;;;;;;2.25;1.33;;;21.60;47.50;;;;;;5010371;28;20196;-51
2022/12/08 14:24:32;;;;;;;1.95;1.30;;;21.60;48.10;;;;;;5011281;28;20298;-49
2022/12/08 14:27:04;;;;;;;1.35;1.02;;;21.50;47.50;;;;;;5011111;28;20193;-49
2022/12/08 14:29:46;;;;;;;1.98;1.30;;;21.50;47.50;;;;;;5010985;28;20193;-49
2022/12/08 14:32:24;;;;;;;3.38;1.50;;;21.50;47.50;;;;;;5011149;28;20681;-50
2022/12/08 14:35:03;;;;;;;2.85;1.42;;;21.50;47.50;;;;;;5010261;28;20204;-52